• Join FlightAware (Why Join?)
  • Login
  • US Flag 
07:34PM EDT


 

Airport Tracker/Info


-or-


 

Live Flight TrackerFlight Track Log ✈ RPA3392 ✈ 27-Jun-2013 ✈ KMSP - KDCA

Flight Track Log - Related Links

Times and Time Zones

All times are in EDT time to prevent confusion due to time zone crossing. See the RPA3392 flight status page for this flight to view local times or setup timezone preferences in your user account.

Time Position Orientation Groundspeed Altitude Reporting Facility
EDT Latitude Longitude Course Direction KTS MPH feet Rate Location/Type
06:08PM 44.9167 -93.2333 117° Southeast 161 185 2,100  Level Minneapolis TRACON
06:09PM 44.9531 -93.2239 10° North 185 213 3,300 1,680 Climbing Minneapolis Center
06:10PM 44.9761 -93.1489 66° East 268 308 5,400 2,220 Climbing Minneapolis Center
06:11PM 44.7246 -92.6498 113° Southeast  Level Estimated
06:11PM 44.9283 -93.0522 125° Southeast 297 342 7,900  Level Minneapolis Center
06:12PM 44.6666 -92.5203 122° Southeast  Level FlightAware Approximate
06:12PM 44.8822 -92.9431 121° Southeast 318 366 10,500  Level Minneapolis Center
06:13PM 44.6141 -92.3763 117° Southeast  Level FlightAware Approximate
06:13PM 44.8300 -92.8253 122° Southeast 351 404 12,300  Level Minneapolis Center
06:14PM 44.5622 -92.2334 117° Southeast  Level FlightAware Approximate
06:14PM 44.7742 -92.6975 122° Southeast 377 434 14,100  Level Minneapolis Center
06:16PM 44.7022 -92.5369 122° Southeast 408 470 16,300 2,040 Climbing Minneapolis Center
06:17PM 44.6408 -92.4003 122° Southeast 415 478 18,400 1,740 Climbing Minneapolis Center
06:18PM 44.5781 -92.2583 122° Southeast 423 487 19,900 1,500 Climbing Minneapolis Center
06:19PM 44.5083 -92.1142 124° Southeast 438 504 21,500 1,320 Climbing Minneapolis Center
06:20PM 44.4328 -91.9708 126° Southeast 452 520 22,700 1,080 Climbing Minneapolis Center
06:21PM 44.3567 -91.8200 125° Southeast 467 537 23,800 1,200 Climbing Minneapolis Center
06:22PM 44.2806 -91.6169 118° Southeast 492 566 25,200 1,260 Climbing Minneapolis Center
06:23PM 44.2147 -91.4461 118° Southeast 498 573 26,500 1,080 Climbing Minneapolis Center
06:24PM 44.1533 -91.2842 118° Southeast 503 579 27,500 900 Climbing Minneapolis Center
06:25PM 44.0864 -91.1097 118° Southeast 510 587 28,400 960 Climbing Minneapolis Center
06:26PM 44.0028 -90.8972 119° Southeast 521 600 29,600 1,140 Climbing Minneapolis Center
06:27PM 43.9350 -90.7200 118° Southeast 522 601 30,800 1,020 Climbing Minneapolis Center
06:28PM 43.8617 -90.5369 119° Southeast 524 603 31,800 720 Climbing Minneapolis Center
06:29PM 43.7925 -90.3625 119° Southeast 521 600 32,400 540 Climbing Minneapolis Center
06:30PM 43.7217 -90.1842 119° Southeast 527 606 33,000 240 Climbing Minneapolis Center
06:31PM 43.6494 -90.0083 120° Southeast 526 605 33,000  Level Minneapolis Center
06:32PM 43.5672 -89.8025 119° Southeast 526 605 33,000  Level Minneapolis Center
06:33PM 43.5081 -89.6194 114° Southeast 527 606 33,000 240 Level Minneapolis Center
06:34PM 43.4567 -89.4342 111° Southeast 521 600 33,600 600 Climbing Minneapolis Center
06:35PM 43.4025 -89.2497 112° Southeast 521 600 34,300 600 Climbing Minneapolis Center
06:36PM 43.3300 -89.0036 112° Southeast 525 604 35,000 300 Climbing Chicago Center
06:37PM 43.2756 -88.8183 112° Southeast 527 606 35,000  Level Chicago Center
06:38PM 43.2203 -88.6364 113° Southeast 525 604 35,000  Level Chicago Center
06:40PM 43.1664 -88.4533 112° Southeast 525 604 35,000  Level Chicago Center
06:41PM 43.1117 -88.2361 109° East 521 600 35,000  Level Chicago Center
06:42PM 43.0911 -88.0447 98° East 512 589 35,000  Level Chicago Center
06:43PM 43.0478 -87.8572 107° East 524 603 35,000  Level Chicago Center
06:44PM 42.9889 -87.6728 114° Southeast 527 606 35,000  Level Chicago Center
06:45PM 42.9306 -87.4900 113° Southeast 525 604 35,000  Level Chicago Center
06:46PM 42.8706 -87.2997 113° Southeast 526 605 35,000  Level Chicago Center
06:47PM 42.8150 -87.1175 113° Southeast 525 604 35,000  Level Chicago Center
06:48PM 42.7603 -86.9347 112° Southeast 525 604 35,000  Level Chicago Center
06:49PM 42.7106 -86.7136 107° East 515 593 35,000  Level Chicago Center
06:50PM 42.7225 -86.5239 85° East 507 583 35,000  Level Chicago Center
06:51PM 42.7339 -86.3347 85° East 508 585 35,000  Level Chicago Center
06:52PM 42.7456 -86.1458 85° East 508 585 35,000  Level Chicago Center
06:53PM 42.7581 -85.9575 85° East 508 585 35,000  Level Chicago Center
06:54PM 42.7719 -85.7364 85° East 500 575 35,000  Level Chicago Center
06:55PM 42.7828 -85.5539 85° East 493 567 35,000  Level Chicago Center
06:56PM 42.7453 -85.3753 106° East 497 572 35,000  Level Chicago Center
06:57PM 42.6844 -85.2031 116° Southeast 505 581 35,000  Level Chicago Center
06:58PM 42.6242 -85.0328 116° Southeast 503 579 35,000  Level Chicago Center
06:59PM 42.5778 -84.8569 110° East 496 571 35,000  Level Chicago Center
07:00PM 42.5297 -84.6439 107° East 495 570 35,000  Level Chicago Center
07:01PM 42.4906 -84.4678 107° East 491 565 35,000  Level Chicago Center
07:02PM 42.4553 -84.2981 106° East 478 550 35,000  Level Chicago Center
07:03PM 42.4244 -84.1319 104° East 462 532 35,000  Level Chicago Center
07:04PM 42.3939 -83.9711 104° East 449 517 35,000  Level Chicago Center
07:05PM 42.3683 -83.8075 102° East 446 513 35,000  Level Chicago Center
07:07PM 42.3278 -83.5575 102° East 435 501 35,000  Level Cleveland Center
07:08PM 42.3008 -83.3961 103° East 441 507 35,000  Level Cleveland Center
07:09PM 42.2753 -83.2350 102° East 441 507 35,000  Level Cleveland Center
07:10PM 42.2283 -83.0986 115° Southeast 434 499 35,000  Level Cleveland Center
07:11PM 42.1306 -82.9939 142° Southeast 428 493 35,000  Level Cleveland Center
07:12PM 42.0347 -82.8953 143° Southeast 429 494 35,000  Level Cleveland Center
07:13PM 41.9406 -82.7969 142° Southeast 434 499 35,000  Level Cleveland Center
07:14PM 41.8489 -82.6933 140° Southeast 434 499 35,000  Level Cleveland Center
07:15PM 41.7525 -82.5956 143° Southeast 434 499 35,000  Level Cleveland Center
07:16PM 41.6564 -82.4953 142° Southeast 434 499 35,000  Level Cleveland Center
07:17PM 41.5517 -82.3839 141° Southeast 434 499 35,000  Level Cleveland Center
07:18PM 41.4514 -82.2786 142° Southeast 440 506 35,000  Level Cleveland Center
07:19PM 41.3528 -82.1764 142° Southeast 451 519 35,000  Level Cleveland Center
07:20PM 41.2581 -82.0719 140° Southeast 456 525 35,000  Level Cleveland Center
07:21PM 41.1594 -81.9703 142° Southeast 456 525 35,000  Level Cleveland Center
07:22PM 41.0542 -81.8689 144° Southeast 470 541 35,000  Level Cleveland Center
07:23PM 40.9553 -81.7653 142° Southeast 470 541 35,000  Level Cleveland Center
07:24PM 40.8564 -81.6619 142° Southeast 465 535 35,000  Level Cleveland Center
07:25PM 40.7531 -81.5589 143° Southeast 456 525 35,000  Level Cleveland Center
07:26PM 40.6728 -81.4317 130° Southeast 456 525 35,000  Level Cleveland Center
07:27PM 40.6067 -81.3269 130° Southeast 456 525 35,000  Level Cleveland Center
07:28PM 40.5139 -81.1731 128° Southeast 456 525 35,000  Level Cleveland Center
07:29PM 40.4331 -81.0469 130° Southeast 451 519 35,000  Level Cleveland Center
07:30PM 40.3544 -80.9208 129° Southeast 451 519 35,000  Level Cleveland Center
07:31PM 40.2733 -80.7981 131° Southeast 451 519 35,000  Level Cleveland Center
07:32PM 40.1922 -80.6700 130° Southeast 451 519 35,000 -360 Level Cleveland Center
07:33PM 40.1150 -80.5533 131° Southeast 456 525 34,300 -1,020 Descending Cleveland Center
07:34PM 40.0336 -80.4258 130° Southeast 456 525 33,000 -1,080 Descending Cleveland Center
07:36PM 39.8647 -80.1575 129° Southeast 437 503 31,000 -660 Descending Washington Center
07:37PM 39.7817 -80.0386 132° Southeast 437 503 31,000  Level Washington Center
07:38PM 39.6867 -79.8981 131° Southeast 458 527 31,000  Level Washington Center
07:39PM 39.6058 -79.7719 130° Southeast 458 527 31,000  Level Washington Center
07:40PM 39.5225 -79.6461 131° Southeast 458 527 31,000  Level Washington Center
07:41PM 39.4392 -79.5203 131° Southeast 458 527 31,000 -60 Level Washington Center
07:42PM 39.3556 -79.3978 131° Southeast 458 527 30,900 -1,200 Descending Washington Center
07:43PM 39.2742 -79.2703 129° Southeast 458 527 28,600 -1,920 Descending Washington Center
07:44PM 39.2408 -79.1292 107° East 458 527 27,100 -1,320 Descending Washington Center
07:45PM 39.2247 -78.9675 97° East 440 506 26,000 -1,740 Descending Washington Center
07:46PM 39.2103 -78.8089 97° East 440 506 23,700 -2,520 Descending Washington Center
07:47PM 39.1933 -78.6553 98° East 435 501 21,000 -2,580 Descending Washington Center
07:48PM 39.1783 -78.5075 97° East 425 489 18,700 -2,040 Descending Washington Center
07:49PM 39.1628 -78.3675 98° East 414 476 16,900 -840 Descending Washington Center
07:50PM 39.1306 -78.2300 107° East 395 455 17,100  Climbing Washington Center
07:51PM 39.0958 -78.0922 108° East 395 455 16,900 -1,200 Descending Washington Center
07:52PM 39.0611 -77.9600 109° East 400 460 14,800 -1,980 Descending Washington Center
07:53PM 39.0319 -77.8469 108° East 360 414 13,000 -1,800 Descending Washington Center
07:54PM 39.0008 -77.7283 109° East 323 372 11,200 -1,680 Descending Washington Center
07:55PM 38.9753 -77.6317 109° East 318 366 9,700 -1,740 Descending Washington Center
07:56PM 38.9500 -77.5333 108° East 310 357 8,200 -1,620 Descending Potomac TRACON
07:56PM 38.9667 -77.4500 76° East 303 349 7,000 -1,200 Descending Potomac TRACON
07:58PM 39.0000 -77.3333 70° East 283 326 5,900 -840 Descending Potomac TRACON
07:59PM 39.0333 -77.2500 63° Northeast 237 273 5,100 -960 Descending Potomac TRACON
08:00PM 39.0333 -77.1833 90° East 239 275 4,000 -1,140 Descending Potomac TRACON
08:00PM 39.0000 -77.1833 180° South 184 212 3,200 -1,020 Descending Potomac TRACON
08:02PM 38.9500 -77.1333 142° Southeast 193 222 1,900 -1,140 Descending Potomac TRACON